Time,TemperatureF,DewpointF,PressureIn,WindDirection,WindDirectionDegrees,WindSpeedMPH,WindSpeedGustMPH,Humidity,HourlyPrecipIn,Conditions,Clouds,dailyrainin,SoftwareType,DateUTC
2013-02-19 00:02:00,29.0,17.0,30.07,North,0,0.0,0.0,60,0.00,,,0.00,,2013-02-19 05:02:00,
2013-02-19 00:12:00,29.0,17.0,30.07,North,0,0.0,0.0,60,0.00,,,0.00,,2013-02-19 05:12:00,
2013-02-19 00:22:00,29.0,17.0,30.05,North,0,0.0,0.0,61,0.00,,,0.00,,2013-02-19 05:22:00,
2013-02-19 00:32:00,29.0,18.0,30.04,North,0,0.0,0.0,62,0.00,,,0.00,,2013-02-19 05:32:00,
2013-02-19 00:43:00,29.0,18.0,30.04,North,0,0.0,0.0,62,0.00,,,0.00,,2013-02-19 05:43:00,
2013-02-19 00:52:00,29.0,18.0,30.04,North,0,0.0,0.0,62,0.00,,,0.00,,2013-02-19 05:52:00,
2013-02-19 01:02:00,28.0,17.0,30.04,North,0,0.0,0.0,62,0.00,,,0.00,,2013-02-19 06:02:00,
2013-02-19 01:12:00,28.0,17.0,30.04,North,0,0.0,0.0,62,0.00,,,0.00,,2013-02-19 06:12:00,
2013-02-19 01:22:00,28.0,17.0,30.03,North,0,0.0,1.0,64,0.00,,,0.00,,2013-02-19 06:22:00,
2013-02-19 01:32:00,29.0,19.0,30.03,SSE,151,1.0,2.0,67,0.00,,,0.00,,2013-02-19 06:32:00,
2013-02-19 01:42:00,29.0,19.0,30.03,SSE,151,1.0,2.0,67,0.00,,,0.00,,2013-02-19 06:42:00,
2013-02-19 01:52:00,30.0,21.0,30.01,North,0,0.0,8.0,68,0.00,,,0.00,,2013-02-19 06:52:00,
2013-02-19 02:01:00,30.0,20.0,30.00,North,0,0.0,3.0,67,0.00,,,0.00,,2013-02-19 07:01:00,
2013-02-19 02:11:00,30.0,20.0,30.00,North,0,0.0,3.0,67,0.00,,,0.00,,2013-02-19 07:11:00,
2013-02-19 02:22:00,30.0,20.0,30.00,North,0,0.0,1.0,67,0.00,,,0.00,,2013-02-19 07:22:00,
2013-02-19 02:32:00,30.0,21.0,29.99,North,0,0.0,2.0,68,0.00,,,0.00,,2013-02-19 07:32:00,
2013-02-19 02:42:00,30.0,21.0,29.99,North,0,0.0,2.0,68,0.00,,,0.00,,2013-02-19 07:42:00,
2013-02-19 02:52:00,30.0,21.0,29.99,North,0,0.0,0.0,69,0.00,,,0.00,,2013-02-19 07:52:00,
2013-02-19 03:02:00,30.0,21.0,29.99,North,0,0.0,0.0,69,0.00,,,0.00,,2013-02-19 08:02:00,
2013-02-19 03:11:00,30.0,21.0,29.99,North,0,0.0,0.0,69,0.00,,,0.00,,2013-02-19 08:11:00,
2013-02-19 03:21:00,29.0,20.0,29.99,North,0,0.0,0.0,70,0.00,,,0.00,,2013-02-19 08:21:00,
2013-02-19 03:32:00,29.0,20.0,29.99,North,0,0.0,0.0,70,0.00,,,0.00,,2013-02-19 08:32:00,
2013-02-19 03:42:00,29.0,20.0,29.99,North,0,0.0,0.0,70,0.00,,,0.00,,2013-02-19 08:42:00,
2013-02-19 03:52:00,28.0,20.0,29.99,North,0,0.0,0.0,71,0.00,,,0.00,,2013-02-19 08:52:00,
2013-02-19 04:02:00,28.0,20.0,29.97,North,0,0.0,0.0,72,0.00,,,0.00,,2013-02-19 09:02:00,
2013-02-19 04:11:00,28.0,20.0,29.97,North,0,0.0,0.0,72,0.00,,,0.00,,2013-02-19 09:11:00,
2013-02-19 04:22:00,28.0,21.0,29.96,North,0,0.0,0.0,75,0.00,,,0.00,,2013-02-19 09:22:00,
2013-02-19 04:32:00,28.0,22.0,29.95,North,0,0.0,0.0,77,0.00,,,0.00,,2013-02-19 09:32:00,
2013-02-19 04:42:00,28.0,22.0,29.95,North,0,0.0,0.0,77,0.00,,,0.00,,2013-02-19 09:42:00,
2013-02-19 04:53:00,28.0,22.0,29.94,North,0,0.0,0.0,78,0.00,,,0.00,,2013-02-19 09:53:00,
2013-02-19 05:02:00,28.0,22.0,29.93,North,0,0.0,1.0,79,0.00,,,0.00,,2013-02-19 10:02:00,
2013-02-19 05:11:00,28.0,22.0,29.93,North,0,0.0,1.0,79,0.00,,,0.00,,2013-02-19 10:11:00,
2013-02-19 05:22:00,29.0,23.0,29.94,North,0,0.0,1.0,79,0.00,,,0.00,,2013-02-19 10:22:00,
2013-02-19 05:32:00,29.0,23.0,29.93,North,0,0.0,1.0,79,0.00,,,0.00,,2013-02-19 10:32:00,
2013-02-19 05:42:00,29.0,23.0,29.93,North,0,0.0,1.0,79,0.00,,,0.00,,2013-02-19 10:42:00,
2013-02-19 05:52:00,29.0,23.0,29.92,North,0,0.0,0.0,79,0.00,,,0.00,,2013-02-19 10:52:00,
2013-02-19 06:01:00,30.0,24.0,29.90,North,0,0.0,2.0,78,0.00,,,0.00,,2013-02-19 11:01:00,
2013-02-19 06:11:00,31.0,25.0,29.90,North,0,0.0,3.0,78,0.00,,,0.00,,2013-02-19 11:11:00,
2013-02-19 06:22:00,31.0,25.0,29.90,North,0,0.0,3.0,78,0.00,,,0.00,,2013-02-19 11:22:00,
2013-02-19 06:32:00,31.0,25.0,29.90,North,0,0.0,2.0,77,0.00,,,0.00,,2013-02-19 11:32:00,
2013-02-19 06:42:00,31.0,25.0,29.90,North,0,0.0,2.0,77,0.00,,,0.00,,2013-02-19 11:42:00,
2013-02-19 06:52:00,31.0,25.0,29.89,North,0,0.0,2.0,77,0.00,,,0.00,,2013-02-19 11:52:00,
2013-02-19 07:02:00,32.0,25.0,29.90,North,0,0.0,4.0,76,0.00,,,0.00,,2013-02-19 12:02:00,
2013-02-19 07:12:00,32.0,25.0,29.90,North,0,0.0,4.0,76,0.00,,,0.00,,2013-02-19 12:12:00,
2013-02-19 07:22:00,32.0,25.0,29.89,North,0,0.0,2.0,76,0.00,,,0.00,,2013-02-19 12:22:00,
2013-02-19 07:32:00,33.0,26.0,29.89,North,0,0.0,1.0,75,0.00,,,0.00,,2013-02-19 12:32:00,
2013-02-19 07:42:00,33.0,26.0,29.89,North,0,0.0,1.0,75,0.00,,,0.00,,2013-02-19 12:42:00,
2013-02-19 07:52:00,33.0,26.0,29.89,North,0,0.0,0.0,76,0.00,,,0.00,,2013-02-19 12:52:00,
2013-02-19 08:02:00,33.0,26.0,29.80,North,0,0.0,2.0,76,0.00,,,0.00,,2013-02-19 13:02:00,
2013-02-19 08:11:00,33.0,26.0,29.80,North,0,0.0,2.0,76,0.00,,,0.00,,2013-02-19 13:11:00,
2013-02-19 08:22:00,33.0,26.0,29.88,North,0,0.0,2.0,76,0.00,,,0.00,,2013-02-19 13:22:00,
2013-02-19 08:32:00,34.0,27.0,29.82,North,0,0.0,4.0,76,0.00,,,0.00,,2013-02-19 13:32:00,
2013-02-19 08:42:00,34.0,27.0,29.82,North,0,0.0,4.0,76,0.00,,,0.00,,2013-02-19 13:42:00,
2013-02-19 08:52:00,35.0,28.0,29.85,SSE,152,4.0,9.0,75,0.00,,,0.00,,2013-02-19 13:52:00,
2013-02-19 09:01:00,37.0,28.0,29.82,SSE,153,3.0,10.0,71,0.00,,,0.00,,2013-02-19 14:01:00,
2013-02-19 09:12:00,37.0,28.0,29.82,SSE,153,3.0,10.0,71,0.00,,,0.00,,2013-02-19 14:12:00,
2013-02-19 09:22:00,38.0,29.0,29.74,SSE,156,6.0,13.0,69,0.00,,,0.00,,2013-02-19 14:22:00,
2013-02-19 09:33:00,39.0,29.0,29.82,SE,127,4.0,11.0,67,0.00,,,0.00,,2013-02-19 14:33:00,
2013-02-19 09:42:00,39.0,29.0,29.82,SE,127,4.0,11.0,67,0.00,,,0.00,,2013-02-19 14:42:00,
2013-02-19 09:52:00,40.0,30.0,29.81,SE,141,2.0,13.0,66,0.00,,,0.00,,2013-02-19 14:52:00,
2013-02-19 10:02:00,40.0,30.0,29.82,SE,142,3.0,10.0,66,0.00,,,0.00,,2013-02-19 15:02:00,
2013-02-19 10:11:00,40.0,30.0,29.82,SE,142,3.0,10.0,66,0.00,,,0.00,,2013-02-19 15:11:00,
2013-02-19 10:21:00,41.0,30.0,29.81,SSE,149,3.0,11.0,64,0.00,,,0.00,,2013-02-19 15:21:00,
2013-02-19 10:32:00,41.0,29.0,29.81,SE,128,1.0,12.0,63,0.00,,,0.00,,2013-02-19 15:32:00,
2013-02-19 10:42:00,41.0,29.0,29.81,SE,128,1.0,12.0,63,0.00,,,0.00,,2013-02-19 15:42:00,
2013-02-19 10:52:00,41.0,31.0,29.78,SE,146,4.0,12.0,68,0.00,,,0.00,,2013-02-19 15:52:00,
2013-02-19 11:02:00,38.0,32.0,29.80,North,0,0.0,9.0,79,0.02,,,0.02,,2013-02-19 16:02:00,
2013-02-19 11:11:00,38.0,32.0,29.80,North,0,0.0,9.0,79,0.02,,,0.02,,2013-02-19 16:11:00,
2013-02-19 11:22:00,37.0,33.0,29.80,SSE,155,4.0,10.0,84,0.03,,,0.03,,2013-02-19 16:22:00,
2013-02-19 11:32:00,36.0,33.0,29.75,SE,129,2.0,6.0,87,0.04,,,0.04,,2013-02-19 16:32:00,
2013-02-19 11:42:00,36.0,33.0,29.75,SE,129,2.0,6.0,87,0.04,,,0.04,,2013-02-19 16:42:00,
2013-02-19 11:52:00,36.0,33.0,29.78,North,0,0.0,4.0,89,0.06,,,0.06,,2013-02-19 16:52:00,
2013-02-19 12:01:00,36.0,33.0,29.77,ESE,119,1.0,4.0,90,0.04,,,0.06,,2013-02-19 17:01:00,
2013-02-19 12:11:00,36.0,33.0,29.77,ESE,119,1.0,4.0,90,0.04,,,0.06,,2013-02-19 17:11:00,
2013-02-19 12:21:00,36.0,34.0,29.77,North,0,0.0,4.0,91,0.04,,,0.07,,2013-02-19 17:21:00,
2013-02-19 12:32:00,35.0,33.0,29.74,North,0,0.0,4.0,91,0.06,,,0.10,,2013-02-19 17:32:00,
2013-02-19 12:42:00,35.0,33.0,29.73,SE,132,1.0,2.0,92,0.06,,,0.12,,2013-02-19 17:42:00,
2013-02-19 12:52:00,35.0,33.0,29.73,SE,132,1.0,2.0,92,0.06,,,0.12,,2013-02-19 17:52:00,
2013-02-19 13:01:00,36.0,34.0,29.72,SSE,157,1.0,5.0,93,0.10,,,0.16,,2013-02-19 18:01:00,
2013-02-19 13:11:00,36.0,34.0,29.72,SSE,157,1.0,5.0,93,0.10,,,0.16,,2013-02-19 18:11:00,
2013-02-19 13:21:00,37.0,35.0,29.71,SSE,154,2.0,5.0,94,0.11,,,0.18,,2013-02-19 18:21:00,
2013-02-19 13:32:00,37.0,35.0,29.70,SE,142,3.0,6.0,94,0.09,,,0.19,,2013-02-19 18:32:00,
2013-02-19 13:42:00,38.0,36.0,29.70,SE,133,1.0,5.0,94,0.08,,,0.20,,2013-02-19 18:42:00,
2013-02-19 13:52:00,38.0,36.0,29.70,SE,133,1.0,5.0,94,0.08,,,0.20,,2013-02-19 18:52:00,
2013-02-19 14:01:00,38.0,36.0,29.67,SSE,156,2.0,6.0,94,0.05,,,0.21,,2013-02-19 19:01:00,
2013-02-19 14:11:00,38.0,36.0,29.67,SSE,156,2.0,6.0,94,0.05,,,0.21,,2013-02-19 19:11:00,
2013-02-19 14:21:00,38.0,37.0,29.66,SE,132,2.0,5.0,95,0.04,,,0.22,,2013-02-19 19:21:00,
2013-02-19 14:32:00,38.0,37.0,29.65,SSE,153,1.0,3.0,95,0.03,,,0.22,,2013-02-19 19:32:00,
2013-02-19 14:42:00,38.0,37.0,29.65,SSE,153,1.0,3.0,95,0.03,,,0.22,,2013-02-19 19:42:00,
2013-02-19 14:52:00,38.0,37.0,29.63,SSE,147,4.0,7.0,95,0.03,,,0.23,,2013-02-19 19:52:00,
2013-02-19 15:01:00,39.0,38.0,29.62,SE,145,1.0,6.0,95,0.02,,,0.23,,2013-02-19 20:01:00,
2013-02-19 15:12:00,39.0,38.0,29.62,SE,145,1.0,6.0,95,0.02,,,0.23,,2013-02-19 20:12:00,
2013-02-19 15:22:00,39.0,38.0,29.48,North,0,0.0,6.0,95,0.01,,,0.23,,2013-02-19 20:22:00,
2013-02-19 15:32:00,39.0,38.0,29.60,SE,143,2.0,5.0,95,0.01,,,0.23,,2013-02-19 20:32:00,
2013-02-19 15:42:00,39.0,38.0,29.60,SE,143,2.0,5.0,95,0.01,,,0.23,,2013-02-19 20:42:00,
2013-02-19 15:52:00,39.0,38.0,29.47,SE,131,4.0,6.0,95,0.00,,,0.23,,2013-02-19 20:52:00,
2013-02-19 16:02:00,39.0,-99.9,28.86,North,-999,-999.0,0.0,-999,0.00,,,0.23,,2013-02-19 21:02:00,
2013-02-19 16:11:00,39.0,-99.9,28.86,North,-999,-999.0,0.0,-999,0.00,,,0.23,,2013-02-19 21:11:00,
2013-02-19 17:21:00,41.0,40.0,29.57,North,0,0.0,0.0,96,0.00,,,0.23,,2013-02-19 22:21:00,
2013-02-19 17:32:00,41.0,40.0,29.57,SSE,163,3.0,9.0,96,0.00,,,0.23,,2013-02-19 22:32:00,
2013-02-19 17:42:00,41.0,40.0,29.57,SSE,163,3.0,9.0,96,0.00,,,0.23,,2013-02-19 22:42:00,
2013-02-19 17:52:00,41.0,40.0,29.21,SSE,148,1.0,1.0,96,0.00,,,0.23,,2013-02-19 22:52:00,
2013-02-19 18:01:00,41.0,-99.9,29.21,SE,126,3.0,3.0,-999,0.00,,,0.23,,2013-02-19 23:01:00,
2013-02-19 18:11:00,41.0,-99.9,29.21,SE,126,3.0,3.0,-999,0.00,,,0.23,,2013-02-19 23:11:00,
2013-02-19 19:02:00,41.0,-99.9,28.53,North,0,0.0,0.0,-999,0.00,,,0.23,,2013-02-20 00:02:00,
2013-02-19 19:12:00,41.0,-99.9,28.53,North,0,0.0,0.0,-999,0.00,,,0.23,,2013-02-20 00:12:00,
2013-02-19 19:32:00,41.0,40.0,28.53,NNW,328,1.0,4.0,96,0.00,,,0.23,,2013-02-20 00:32:00,
2013-02-19 19:42:00,41.0,40.0,28.53,NNW,328,1.0,4.0,96,0.00,,,0.23,,2013-02-20 00:42:00,
2013-02-19 19:52:00,40.0,39.0,29.38,North,0,0.0,0.0,96,0.00,,,0.23,,2013-02-20 00:52:00,
2013-02-19 21:52:00,36.0,34.0,29.60,North,0,0.0,5.0,93,0.00,,,0.23,,2013-02-20 02:52:00,
2013-02-19 22:02:00,36.0,34.0,29.62,NNW,342,2.0,11.0,92,0.00,,,0.23,,2013-02-20 03:02:00,
2013-02-19 22:12:00,36.0,34.0,29.62,NNW,342,2.0,11.0,92,0.00,,,0.23,,2013-02-20 03:12:00,
2013-02-19 22:22:00,35.0,33.0,29.63,North,0,0.0,2.0,91,0.00,,,0.23,,2013-02-20 03:22:00,
2013-02-19 22:32:00,35.0,32.0,29.64,North,0,0.0,6.0,89,0.00,,,0.23,,2013-02-20 03:32:00,
2013-02-19 22:42:00,35.0,32.0,29.64,North,0,0.0,6.0,89,0.00,,,0.23,,2013-02-20 03:42:00,
2013-02-19 22:52:00,35.0,32.0,29.47,North,351,3.0,6.0,87,0.00,,,0.23,,2013-02-20 03:52:00,
2013-02-19 23:01:00,35.0,30.0,29.57,NNW,336,4.0,15.0,83,0.00,,,0.23,,2013-02-20 04:01:00,
2013-02-19 23:11:00,35.0,30.0,29.57,NNW,336,4.0,15.0,83,0.00,,,0.23,,2013-02-20 04:11:00,
2013-02-19 23:21:00,35.0,29.0,29.60,North,0,0.0,10.0,80,0.00,,,0.23,,2013-02-20 04:21:00,
2013-02-19 23:31:00,34.0,28.0,29.43,NNW,337,1.0,5.0,78,0.00,,,0.23,,2013-02-20 04:31:00,
2013-02-19 23:42:00,34.0,28.0,29.43,NNW,337,1.0,5.0,78,0.00,,,0.23,,2013-02-20 04:42:00,
2013-02-19 23:52:00,34.0,28.0,29.65,North,349,1.0,5.0,78,0.00,,,0.23,,2013-02-20 04:52:00,